Time;durP1;ratioP1;P1;durP2;ratioP2;P2;SDS_P1;SDS_P2;PMS_P1;PMS_P2;Temp;Humidity;BMP_temperature;BMP_pressure;BME280_temperature;BME280_humidity;BME280_pressure;Samples;Min_cycle;Max_cycle;Signal;HPM_P1;HPM_P2
2023/03/26 00:00:55;;;;;;;;;;;;;;;;;;5054729;28;19999;-64
2023/03/26 00:03:21;;;;;;;;;;;;;;;;;;5054297;28;20060;-65
2023/03/26 00:05:47;;;;;;;;;;;;;;;;;;5054671;28;19989;-65
2023/03/26 00:08:13;;;;;;;;;;;;;;;;;;5054325;28;19939;-67
2023/03/26 00:10:39;;;;;;;;;;;;;;;;;;5054346;28;19949;-63
2023/03/26 00:13:05;;;;;;;;;;;;;;;;;;5054331;28;19957;-66
2023/03/26 00:15:30;;;;;;;;;;;;;;;;;;5054445;28;19953;-67
2023/03/26 00:17:56;;;;;;;;;;;;;;;;;;5054200;28;20005;-65
2023/03/26 00:20:22;;;;;;;;;;;;;;;;;;5054173;28;19946;-68
2023/03/26 00:22:49;;;;;;;;;;;;;;;;;;5054309;28;19971;-68
2023/03/26 00:25:16;;;;;;;;;;;;;;;;;;5054314;28;19943;-66
2023/03/26 00:27:44;;;;;;;;;;;;;;;;;;5052581;28;20471;-65
2023/03/26 00:30:10;;;;;;;;;;;;;;;;;;5054180;28;19972;-64
2023/03/26 00:32:36;;;;;;;;;;;;;;;;;;5053885;28;20332;-66
2023/03/26 00:35:03;;;;;;;;;;;;;;;;;;5054186;28;19936;-66
2023/03/26 00:37:29;;;;;;;;;;;;;;;;;;5054216;28;20025;-65
2023/03/26 00:39:58;;;;;;;;;;;;;;;;;;5053690;28;20013;-68
2023/03/26 00:42:24;;;;;;;;;;;;;;;;;;5053725;28;20309;-67
2023/03/26 00:44:53;;;;;;;;;;;;;;;;;;5053767;28;19946;-67
2023/03/26 00:47:19;;;;;;;;;;;;;;;;;;5053698;28;19955;-64
2023/03/26 00:49:47;;;;;;;;;;;;;;;;;;5053719;28;19948;-65
2023/03/26 00:52:13;;;;;;;;;;;;;;;;;;5053716;28;19982;-66
2023/03/26 00:54:39;;;;;;;;;;;;;;;;;;5054199;28;20505;-68
2023/03/26 00:57:05;;;;;;;;;;;;;;;;;;5053913;28;19949;-66
2023/03/26 00:59:34;;;;;;;;;;;;;;;;;;5054176;28;20002;-65
2023/03/26 01:02:00;;;;;;;;;;;;;;;;;;5053516;28;19963;-66
2023/03/26 01:04:29;;;;;;;;;;;;;;;;;;5053568;28;19953;-65
2023/03/26 01:06:54;;;;;;;;;;;;;;;;;;5053809;28;20465;-65
2023/03/26 01:09:20;;;;;;;;;;;;;;;;;;5053775;28;19992;-65
2023/03/26 01:11:46;;;;;;;;;;;;;;;;;;5053719;28;19953;-68
2023/03/26 01:14:12;;;;;;;;;;;;;;;;;;5054018;28;19938;-65
2023/03/26 01:16:38;;;;;;;;;;;;;;;;;;5053414;28;19941;-65
2023/03/26 01:19:04;;;;;;;;;;;;;;;;;;5053743;28;19949;-66
2023/03/26 01:21:30;;;;;;;;;;;;;;;;;;5053344;28;20440;-66
2023/03/26 01:23:56;;;;;;;;;;;;;;;;;;5053409;28;20024;-65
2023/03/26 01:26:23;;;;;;;;;;;;;;;;;;5054132;28;19998;-67
2023/03/26 01:28:50;;;;;;;;;;;;;;;;;;5053547;28;19965;-65
2023/03/26 01:31:16;;;;;;;;;;;;;;;;;;5053569;28;20344;-68
2023/03/26 01:33:42;;;;;;;;;;;;;;;;;;5053836;28;19958;-66
2023/03/26 01:36:08;;;;;;;;;;;;;;;;;;5053275;28;20006;-66
2023/03/26 01:38:34;;;;;;;;;;;;;;;;;;5053197;28;19948;-68
2023/03/26 01:41:00;;;;;;;;;;;;;;;;;;5053111;28;19997;-66
2023/03/26 01:43:26;;;;;;;;;;;;;;;;;;5053690;28;20427;-66
2023/03/26 01:45:52;;;;;;;;;;;;;;;;;;5053170;28;20393;-65
2023/03/26 01:48:18;;;;;;;;;;;;;;;;;;5053140;28;19953;-66
2023/03/26 01:50:43;;;;;;;;;;;;;;;;;;5053414;28;20003;-66
2023/03/26 01:53:09;;;;;;;;;;;;;;;;;;5053398;28;19950;-67
2023/03/26 01:55:35;;;;;;;;;;;;;;;;;;5054200;28;19950;-64
2023/03/26 01:58:01;;;;;;;;;;;;;;;;;;5056789;28;20041;-64
2023/03/26 02:00:27;;;;;;;;;;;;;;;;;;5057004;28;19956;-67
2023/03/26 02:02:53;;;;;;;;;;;;;;;;;;5056677;28;19970;-68
2023/03/26 02:05:20;;;;;;;;;;;;;;;;;;5056722;28;19957;-67
2023/03/26 02:07:49;;;;;;;;;;;;;;;;;;5056968;28;20000;-63
2023/03/26 02:10:15;;;;;;;;;;;;;;;;;;5056545;28;20009;-67
2023/03/26 02:12:41;;;;;;;;;;;;;;;;;;5056851;28;19952;-68
2023/03/26 02:15:07;;;;;;;;;;;;;;;;;;5056498;28;20055;-66
2023/03/26 02:17:33;;;;;;;;;;;;;;;;;;5056455;28;19952;-64
2023/03/26 02:20:05;;;;;;;;;;;;;;;;;;5056711;28;19979;-66
2023/03/26 02:22:31;;;;;;;;;;;;;;;;;;5056336;28;19999;-67
2023/03/26 02:24:57;;;;;;;;;;;;;;;;;;5056901;28;20390;-67
2023/03/26 02:27:23;;;;;;;;;;;;;;;;;;5056566;28;19951;-63
2023/03/26 02:29:49;;;;;;;;;;;;;;;;;;5056097;28;19993;-68
2023/03/26 02:32:15;;;;;;;;;;;;;;;;;;5056213;28;19951;-64
2023/03/26 02:34:40;;;;;;;;;;;;;;;;;;5056462;28;19952;-65
2023/03/26 02:37:06;;;;;;;;;;;;;;;;;;5056357;28;19953;-66
2023/03/26 02:39:32;;;;;;;;;;;;;;;;;;5056396;28;20402;-67
2023/03/26 02:41:58;;;;;;;;;;;;;;;;;;5056324;28;19974;-68
2023/03/26 02:44:24;;;;;;;;;;;;;;;;;;5055975;28;19959;-66
2023/03/26 02:46:50;;;;;;;;;;;;;;;;;;5055949;28;19958;-64
2023/03/26 02:49:16;;;;;;;;;;;;;;;;;;5056154;28;19987;-65
2023/03/26 02:51:42;;;;;;;;;;;;;;;;;;5055802;28;20002;-66
2023/03/26 02:54:08;;;;;;;;;;;;;;;;;;5056076;28;19956;-68
2023/03/26 02:56:34;;;;;;;;;;;;;;;;;;5055764;28;19958;-66
2023/03/26 02:59:00;;;;;;;;;;;;;;;;;;5056538;28;20476;-68
2023/03/26 03:01:29;;;;;;;;;;;;;;;;;;5055645;28;19949;-66
2023/03/26 03:03:55;;;;;;;;;;;;;;;;;;5054230;28;19980;-66
2023/03/26 03:06:21;;;;;;;;;;;;;;;;;;5055584;28;19995;-67
2023/03/26 03:08:47;;;;;;;;;;;;;;;;;;5054970;28;19997;-67
2023/03/26 03:11:13;;;;;;;;;;;;;;;;;;5055496;28;19952;-64
2023/03/26 03:13:39;;;;;;;;;;;;;;;;;;5055384;28;19956;-64
2023/03/26 03:16:04;;;;;;;;;;;;;;;;;;5055985;28;19960;-65
2023/03/26 03:18:30;;;;;;;;;;;;;;;;;;5055640;28;19956;-68
2023/03/26 03:20:56;;;;;;;;;;;;;;;;;;5055603;28;20298;-66
2023/03/26 03:23:22;;;;;;;;;;;;;;;;;;5055137;28;19978;-67
2023/03/26 03:25:51;;;;;;;;;;;;;;;;;;5055187;28;20039;-64
2023/03/26 03:28:17;;;;;;;;;;;;;;;;;;5053866;28;20340;-66
2023/03/26 03:30:43;;;;;;;;;;;;;;;;;;5055050;28;19972;-66
2023/03/26 03:33:09;;;;;;;;;;;;;;;;;;5055271;28;20368;-65
2023/03/26 03:35:36;;;;;;;;;;;;;;;;;;5055265;28;19960;-65
2023/03/26 03:38:02;;;;;;;;;;;;;;;;;;5055220;28;20370;-67
2023/03/26 03:40:28;;;;;;;;;;;;;;;;;;5054731;28;19988;-65
2023/03/26 03:42:54;;;;;;;;;;;;;;;;;;5054780;28;19974;-68
2023/03/26 03:45:20;;;;;;;;;;;;;;;;;;5055059;28;20007;-67
2023/03/26 03:47:46;;;;;;;;;;;;;;;;;;5054771;28;19959;-65
2023/03/26 03:50:12;;;;;;;;;;;;;;;;;;5054753;28;19959;-66
2023/03/26 03:52:37;;;;;;;;;;;;;;;;;;5054973;28;19954;-65
2023/03/26 03:55:03;;;;;;;;;;;;;;;;;;5054910;28;20423;-64
2023/03/26 03:57:30;;;;;;;;;;;;;;;;;;5055125;28;19993;-67
2023/03/26 03:59:59;;;;;;;;;;;;;;;;;;5054462;28;20488;-67
2023/03/26 04:02:29;;;;;;;;;;;;;;;;;;5054350;28;20447;-68
2023/03/26 04:04:56;;;;;;;;;;;;;;;;;;5055001;28;19955;-65
2023/03/26 04:07:22;;;;;;;;;;;;;;;;;;5054699;28;19952;-65
2023/03/26 04:09:48;;;;;;;;;;;;;;;;;;5054896;28;20003;-66
2023/03/26 04:12:14;;;;;;;;;;;;;;;;;;5054306;28;19958;-64
2023/03/26 04:14:40;;;;;;;;;;;;;;;;;;5053009;28;20394;-68
2023/03/26 04:17:06;;;;;;;;;;;;;;;;;;5054781;28;19955;-66
2023/03/26 04:19:31;;;;;;;;;;;;;;;;;;5053394;28;19953;-66
2023/03/26 04:22:01;;;;;;;;;;;;;;;;;;5054129;28;20022;-67
2023/03/26 04:24:28;;;;;;;;;;;;;;;;;;5054669;28;19951;-66
2023/03/26 04:26:54;;;;;;;;;;;;;;;;;;5054358;28;20046;-67
2023/03/26 04:29:22;;;;;;;;;;;;;;;;;;5054102;28;20460;-67
2023/03/26 04:31:49;;;;;;;;;;;;;;;;;;5054011;28;19959;-65
2023/03/26 04:34:17;;;;;;;;;;;;;;;;;;5053951;28;20419;-67
2023/03/26 04:36:45;;;;;;;;;;;;;;;;;;5054217;28;20326;-67
2023/03/26 04:39:11;;;;;;;;;;;;;;;;;;5054457;28;19956;-66
2023/03/26 04:41:37;;;;;;;;;;;;;;;;;;5053321;28;19994;-66
2023/03/26 04:44:03;;;;;;;;;;;;;;;;;;5054071;28;19951;-66
2023/03/26 04:46:32;;;;;;;;;;;;;;;;;;5053758;28;20005;-65
2023/03/26 04:48:58;;;;;;;;;;;;;;;;;;5054010;28;19963;-68
2023/03/26 04:51:24;;;;;;;;;;;;;;;;;;5053629;28;20318;-67
2023/03/26 04:53:49;;;;;;;;;;;;;;;;;;5053676;28;19986;-66
2023/03/26 04:56:15;;;;;;;;;;;;;;;;;;5053914;28;19946;-66
2023/03/26 04:58:41;;;;;;;;;;;;;;;;;;5052341;28;19954;-66
2023/03/26 05:01:07;;;;;;;;;;;;;;;;;;5053604;28;20040;-67
2023/03/26 05:03:33;;;;;;;;;;;;;;;;;;5053808;28;19979;-65
2023/03/26 05:05:59;;;;;;;;;;;;;;;;;;5053532;28;19951;-66
2023/03/26 05:08:27;;;;;;;;;;;;;;;;;;5054123;28;19948;-66
2023/03/26 05:10:53;;;;;;;;;;;;;;;;;;5053457;28;20414;-68
2023/03/26 05:13:19;;;;;;;;;;;;;;;;;;5053531;28;19945;-66
2023/03/26 05:15:45;;;;;;;;;;;;;;;;;;5053752;28;19962;-67
2023/03/26 05:18:11;;;;;;;;;;;;;;;;;;5053501;28;20033;-65
2023/03/26 05:20:37;;;;;;;;;;;;;;;;;;5053446;28;19944;-67
2023/03/26 05:23:03;;;;;;;;;;;;;;;;;;5053621;28;19976;-65
2023/03/26 05:25:28;;;;;;;;;;;;;;;;;;5053366;28;19956;-65
2023/03/26 05:27:54;;;;;;;;;;;;;;;;;;5053359;28;19998;-68
2023/03/26 05:30:20;;;;;;;;;;;;;;;;;;5053445;28;19972;-65
2023/03/26 05:32:47;;;;;;;;;;;;;;;;;;5057895;28;20414;-66
2023/03/26 05:35:15;;;;;;;;;;;;;;;;;;5057317;28;19995;-65
2023/03/26 05:37:42;;;;;;;;;;;;;;;;;;5057268;28;20039;-67
2023/03/26 05:40:12;;;;;;;;;;;;;;;;;;5055728;28;19991;-65
2023/03/26 05:42:38;;;;;;;;;;;;;;;;;;5055834;28;19972;-64
2023/03/26 05:45:04;;;;;;;;;;;;;;;;;;5057136;28;20443;-64
2023/03/26 05:47:31;;;;;;;;;;;;;;;;;;5057340;28;19959;-65
2023/03/26 05:49:57;;;;;;;;;;;;;;;;;;5056940;28;19955;-67
2023/03/26 05:52:23;;;;;;;;;;;;;;;;;;5057254;28;20019;-65
2023/03/26 05:54:49;;;;;;;;;;;;;;;;;;5056948;28;19999;-65
2023/03/26 05:57:14;;;;;;;;;;;;;;;;;;5056887;28;19948;-65
2023/03/26 05:59:41;;;;;;;;;;;;;;;;;;5057131;28;19951;-69
2023/03/26 06:02:06;;;;;;;;;;;;;;;;;;5056692;28;19972;-64
2023/03/26 06:04:33;;;;;;;;;;;;;;;;;;5057014;28;19952;-64
2023/03/26 06:07:02;;;;;;;;;;;;;;;;;;5055456;28;19992;-64
2023/03/26 06:09:28;;;;;;;;;;;;;;;;;;5057243;28;19952;-68
2023/03/26 06:11:54;;;;;;;;;;;;;;;;;;5057654;28;19956;-65
2023/03/26 06:14:20;;;;;;;;;;;;;;;;;;5056798;28;19959;-67
2023/03/26 06:16:46;;;;;;;;;;;;;;;;;;5056554;28;19945;-64
2023/03/26 06:19:11;;;;;;;;;;;;;;;;;;5056480;28;19984;-65
2023/03/26 06:21:37;;;;;;;;;;;;;;;;;;5056710;28;19960;-66
2023/03/26 06:24:03;;;;;;;;;;;;;;;;;;5056949;28;19991;-66
2023/03/26 06:26:29;;;;;;;;;;;;;;;;;;5056401;28;19958;-67
2023/03/26 06:28:55;;;;;;;;;;;;;;;;;;5056477;28;19964;-67
2023/03/26 06:31:21;;;;;;;;;;;;;;;;;;5056279;28;19957;-66
2023/03/26 06:33:47;;;;;;;;;;;;;;;;;;5056481;28;20007;-67
2023/03/26 06:36:13;;;;;;;;;;;;;;;;;;5056495;28;19950;-65
2023/03/26 06:38:39;;;;;;;;;;;;;;;;;;5056140;28;19955;-69
2023/03/26 06:41:05;;;;;;;;;;;;;;;;;;5055927;28;19990;-67
2023/03/26 06:43:32;;;;;;;;;;;;;;;;;;5055264;28;19968;-66
2023/03/26 06:45:58;;;;;;;;;;;;;;;;;;5056286;28;19951;-65
2023/03/26 06:48:24;;;;;;;;;;;;;;;;;;5056198;28;19950;-64
2023/03/26 06:50:50;;;;;;;;;;;;;;;;;;5055905;28;20437;-66
2023/03/26 06:53:16;;;;;;;;;;;;;;;;;;5055856;28;19955;-68
2023/03/26 06:55:41;;;;;;;;;;;;;;;;;;5055807;28;20327;-66
2023/03/26 06:58:07;;;;;;;;;;;;;;;;;;5055774;28;20033;-67
2023/03/26 07:00:33;;;;;;;;;;;;;;;;;;5056003;28;20361;-67
2023/03/26 07:02:59;;;;;;;;;;;;;;;;;;5055632;28;20408;-67
2023/03/26 07:05:25;;;;;;;;;;;;;;;;;;5055885;28;19961;-65
2023/03/26 07:07:51;;;;;;;;;;;;;;;;;;5055604;28;19951;-66
2023/03/26 07:10:17;;;;;;;;;;;;;;;;;;5056081;28;20456;-66
2023/03/26 07:12:43;;;;;;;;;;;;;;;;;;5055746;28;19948;-66
2023/03/26 07:15:09;;;;;;;;;;;;;;;;;;5055652;28;20307;-67
2023/03/26 07:17:35;;;;;;;;;;;;;;;;;;5055384;28;19963;-64
2023/03/26 07:20:02;;;;;;;;;;;;;;;;;;5055618;28;19959;-66
2023/03/26 07:22:28;;;;;;;;;;;;;;;;;;5055219;28;20048;-64
2023/03/26 07:24:54;;;;;;;;;;;;;;;;;;5055244;28;19948;-66
2023/03/26 07:27:20;;;;;;;;;;;;;;;;;;5055766;28;20382;-65
2023/03/26 07:29:45;;;;;;;;;;;;;;;;;;5055198;28;19974;-66
2023/03/26 07:32:11;;;;;;;;;;;;;;;;;;5055084;28;19947;-64
2023/03/26 07:34:38;;;;;;;;;;;;;;;;;;5055104;28;19952;-67
2023/03/26 07:37:04;;;;;;;;;;;;;;;;;;5053503;28;19999;-68
2023/03/26 07:39:30;;;;;;;;;;;;;;;;;;5054781;28;19955;-66
2023/03/26 07:41:56;;;;;;;;;;;;;;;;;;5055152;28;19952;-67
2023/03/26 07:44:22;;;;;;;;;;;;;;;;;;5054866;28;20335;-65
2023/03/26 07:46:52;;;;;;;;;;;;;;;;;;5055080;28;19985;-61
2023/03/26 07:49:19;;;;;;;;;;;;;;;;;;5055001;28;19965;-66
2023/03/26 07:51:45;;;;;;;;;;;;;;;;;;5054998;28;20332;-64
2023/03/26 07:54:11;;;;;;;;;;;;;;;;;;5055120;28;20041;-65
2023/03/26 07:56:37;;;;;;;;;;;;;;;;;;5055206;28;19975;-63
2023/03/26 07:59:03;;;;;;;;;;;;;;;;;;5054615;28;19958;-64
2023/03/26 08:01:28;;;;;;;;;;;;;;;;;;5054811;28;19948;-63
2023/03/26 08:03:54;;;;;;;;;;;;;;;;;;5054393;28;19971;-67
2023/03/26 08:06:21;;;;;;;;;;;;;;;;;;5054724;28;20000;-65
2023/03/26 08:08:47;;;;;;;;;;;;;;;;;;5054398;28;19950;-64
2023/03/26 08:11:13;;;;;;;;;;;;;;;;;;5054348;28;19955;-66
2023/03/26 08:13:38;;;;;;;;;;;;;;;;;;5054323;28;20457;-65
2023/03/26 08:16:05;;;;;;;;;;;;;;;;;;5054264;28;19953;-67
2023/03/26 08:18:31;;;;;;;;;;;;;;;;;;5054498;28;20404;-66
2023/03/26 08:20:57;;;;;;;;;;;;;;;;;;5054255;28;19957;-65
2023/03/26 08:23:23;;;;;;;;;;;;;;;;;;5054720;28;19969;-66
2023/03/26 08:25:49;;;;;;;;;;;;;;;;;;5054066;28;20037;-65
2023/03/26 08:28:15;;;;;;;;;;;;;;;;;;5054352;28;19953;-66
2023/03/26 08:30:41;;;;;;;;;;;;;;;;;;5053941;28;20066;-65
2023/03/26 08:33:10;;;;;;;;;;;;;;;;;;5054598;28;19954;-69
2023/03/26 08:35:41;;;;;;;;;;;;;;;;;;5054213;28;19959;-65
2023/03/26 08:38:06;;;;;;;;;;;;;;;;;;5053944;28;20379;-65
2023/03/26 08:40:32;;;;;;;;;;;;;;;;;;5053991;28;20015;-66
2023/03/26 08:42:58;;;;;;;;;;;;;;;;;;5054066;28;19971;-67
2023/03/26 08:45:24;;;;;;;;;;;;;;;;;;5053831;28;19954;-64
2023/03/26 08:47:50;;;;;;;;;;;;;;;;;;5053781;28;19953;-66
2023/03/26 08:50:16;;;;;;;;;;;;;;;;;;5054304;28;20000;-67
2023/03/26 08:52:42;;;;;;;;;;;;;;;;;;5053804;28;20070;-67
2023/03/26 08:55:08;;;;;;;;;;;;;;;;;;5053730;28;19936;-66
2023/03/26 08:57:34;;;;;;;;;;;;;;;;;;5053663;28;19941;-65
2023/03/26 09:00:00;;;;;;;;;;;;;;;;;;5053934;28;19951;-67
2023/03/26 09:02:26;;;;;;;;;;;;;;;;;;5053544;28;19991;-66
2023/03/26 09:04:52;;;;;;;;;;;;;;;;;;5053984;28;19941;-64
2023/03/26 09:07:18;;;;;;;;;;;;;;;;;;5053437;28;20323;-64
2023/03/26 09:09:44;;;;;;;;;;;;;;;;;;5054323;28;20049;-67
2023/03/26 09:12:11;;;;;;;;;;;;;;;;;;5053499;28;19940;-65
2023/03/26 09:14:37;;;;;;;;;;;;;;;;;;5053460;28;19951;-65
2023/03/26 09:17:02;;;;;;;;;;;;;;;;;;5053523;28;19939;-67
2023/03/26 09:19:28;;;;;;;;;;;;;;;;;;5053376;28;20413;-65
2023/03/26 09:21:54;;;;;;;;;;;;;;;;;;5053620;28;19947;-66
2023/03/26 09:24:24;;;;;;;;;;;;;;;;;;5053408;28;19953;-67
2023/03/26 09:26:50;;;;;;;;;;;;;;;;;;5053624;28;19950;-66
2023/03/26 09:29:16;;;;;;;;;;;;;;;;;;5053284;28;19961;-64
2023/03/26 09:31:42;;;;;;;;;;;;;;;;;;5053923;28;19940;-67
2023/03/26 09:34:07;;;;;;;;;;;;;;;;;;5053623;28;19949;-66
2023/03/26 09:36:33;;;;;;;;;;;;;;;;;;5053326;28;19994;-67
2023/03/26 09:39:00;;;;;;;;;;;;;;;;;;5053537;28;19955;-66
2023/03/26 09:41:26;;;;;;;;;;;;;;;;;;5052882;28;19983;-65
2023/03/26 09:43:53;;;;;;;;;;;;;;;;;;5053120;28;19970;-67
2023/03/26 09:46:19;;;;;;;;;;;;;;;;;;5053440;28;19956;-65
2023/03/26 09:48:46;;;;;;;;;;;;;;;;;;5053463;28;20002;-67
2023/03/26 09:51:12;;;;;;;;;;;;;;;;;;5053407;28;19958;-66
2023/03/26 09:53:38;;;;;;;;;;;;;;;;;;5053107;28;20402;-67
2023/03/26 09:56:04;;;;;;;;;;;;;;;;;;5051823;28;19956;-65
2023/03/26 09:58:29;;;;;;;;;;;;;;;;;;5053030;28;19963;-68
2023/03/26 10:00:59;;;;;;;;;;;;;;;;;;5053016;28;19959;-67
2023/03/26 10:03:25;;;;;;;;;;;;;;;;;;5052887;28;19974;-67
2023/03/26 10:05:51;;;;;;;;;;;;;;;;;;5053259;28;19956;-65
2023/03/26 10:08:19;;;;;;;;;;;;;;;;;;5052979;28;19989;-65
2023/03/26 10:10:44;;;;;;;;;;;;;;;;;;5053262;28;19950;-66
2023/03/26 10:13:10;;;;;;;;;;;;;;;;;;5052954;28;20049;-66
2023/03/26 10:15:36;;;;;;;;;;;;;;;;;;5053169;28;20318;-67
2023/03/26 10:18:03;;;;;;;;;;;;;;;;;;5054093;28;19959;-66
2023/03/26 10:20:29;;;;;;;;;;;;;;;;;;5055178;28;20332;-68
2023/03/26 10:22:55;;;;;;;;;;;;;;;;;;5056237;28;20348;-65
2023/03/26 10:25:21;;;;;;;;;;;;;;;;;;5056863;28;20051;-67
2023/03/26 10:27:47;;;;;;;;;;;;;;;;;;5056143;28;19953;-68
2023/03/26 10:30:13;;;;;;;;;;;;;;;;;;5056008;28;19967;-67
2023/03/26 10:32:43;;;;;;;;;;;;;;;;;;5055990;28;20174;-67
2023/03/26 10:35:09;;;;;;;;;;;;;;;;;;5055813;28;19978;-67
2023/03/26 10:37:34;;;;;;;;;;;;;;;;;;5055872;28;20090;-66
2023/03/26 10:40:00;;;;;;;;;;;;;;;;;;5055574;28;20024;-66
2023/03/26 10:42:26;;;;;;;;;;;;;;;;;;5055836;28;20442;-68
2023/03/26 10:44:52;;;;;;;;;;;;;;;;;;5055937;28;19950;-67
2023/03/26 10:47:18;;;;;;;;;;;;;;;;;;5056253;28;19952;-68
2023/03/26 10:49:47;;;;;;;;;;;;;;;;;;5056208;28;19956;-65
2023/03/26 10:52:16;;;;;;;;;;;;;;;;;;5055811;28;19963;-66
2023/03/26 10:54:42;;;;;;;;;;;;;;;;;;5056670;28;19998;-66
2023/03/26 10:57:08;;;;;;;;;;;;;;;;;;5055810;28;19951;-68
2023/03/26 10:59:34;;;;;;;;;;;;;;;;;;5056287;28;20447;-65
2023/03/26 11:02:00;;;;;;;;;;;;;;;;;;5055913;28;19993;-68
2023/03/26 11:04:26;;;;;;;;;;;;;;;;;;5055924;28;20347;-68
2023/03/26 11:06:52;;;;;;;;;;;;;;;;;;5055609;28;19953;-66
2023/03/26 11:09:18;;;;;;;;;;;;;;;;;;5055800;28;19965;-69
2023/03/26 11:11:44;;;;;;;;;;;;;;;;;;5056081;28;19945;-66
2023/03/26 11:14:10;;;;;;;;;;;;;;;;;;5055458;28;19953;-66
2023/03/26 11:16:36;;;;;;;;;;;;;;;;;;5055747;28;20052;-65
2023/03/26 11:19:02;;;;;;;;;;;;;;;;;;5055636;28;19954;-65
2023/03/26 11:21:28;;;;;;;;;;;;;;;;;;5055347;28;19952;-66
2023/03/26 11:23:54;;;;;;;;;;;;;;;;;;5055769;28;19972;-65
2023/03/26 11:26:20;;;;;;;;;;;;;;;;;;5055210;28;19998;-68
2023/03/26 11:28:46;;;;;;;;;;;;;;;;;;5054934;28;19962;-66
2023/03/26 11:31:12;;;;;;;;;;;;;;;;;;5055387;28;20452;-65
2023/03/26 11:33:38;;;;;;;;;;;;;;;;;;5055387;28;19986;-67
2023/03/26 11:36:03;;;;;;;;;;;;;;;;;;5055329;28;19987;-71
2023/03/26 11:38:31;;;;;;;;;;;;;;;;;;5054993;28;19947;-68
2023/03/26 11:40:57;;;;;;;;;;;;;;;;;;5054789;28;20011;-67
2023/03/26 11:43:23;;;;;;;;;;;;;;;;;;5054823;28;20446;-66
2023/03/26 11:45:49;;;;;;;;;;;;;;;;;;5055171;28;19954;-65
2023/03/26 11:48:15;;;;;;;;;;;;;;;;;;5054802;28;19947;-67
2023/03/26 11:50:41;;;;;;;;;;;;;;;;;;5054798;28;20079;-65
2023/03/26 11:53:07;;;;;;;;;;;;;;;;;;5055293;28;19952;-66
2023/03/26 11:55:34;;;;;;;;;;;;;;;;;;5054675;28;19959;-65
2023/03/26 11:58:00;;;;;;;;;;;;;;;;;;5054529;28;19957;-68
2023/03/26 12:00:26;;;;;;;;;;;;;;;;;;5054632;28;19952;-67
2023/03/26 12:02:52;;;;;;;;;;;;;;;;;;5054452;28;19978;-67
2023/03/26 12:05:18;;;;;;;;;;;;;;;;;;5055080;28;19952;-64
2023/03/26 12:07:44;;;;;;;;;;;;;;;;;;5054412;28;20403;-66
2023/03/26 12:10:10;;;;;;;;;;;;;;;;;;5054699;28;20328;-66
2023/03/26 12:12:36;;;;;;;;;;;;;;;;;;5054397;28;19957;-68
2023/03/26 12:15:02;;;;;;;;;;;;;;;;;;5054649;28;20048;-68
2023/03/26 12:17:28;;;;;;;;;;;;;;;;;;5054559;28;20003;-66
2023/03/26 12:19:54;;;;;;;;;;;;;;;;;;5052949;28;19960;-65
2023/03/26 12:22:20;;;;;;;;;;;;;;;;;;5054152;28;19970;-66
2023/03/26 12:24:47;;;;;;;;;;;;;;;;;;5054173;28;20097;-67
2023/03/26 12:27:19;;;;;;;;;;;;;;;;;;5054709;28;20061;-68
2023/03/26 12:29:45;;;;;;;;;;;;;;;;;;5054194;28;19979;-68
2023/03/26 12:32:11;;;;;;;;;;;;;;;;;;5054022;28;20373;-66
2023/03/26 12:34:37;;;;;;;;;;;;;;;;;;5054030;28;19954;-64
2023/03/26 12:37:02;;;;;;;;;;;;;;;;;;5054255;28;19945;-66
2023/03/26 12:39:29;;;;;;;;;;;;;;;;;;5053740;28;20046;-68
2023/03/26 12:41:55;;;;;;;;;;;;;;;;;;5053091;28;19982;-65
2023/03/26 12:44:24;;;;;;;;;;;;;;;;;;5053870;28;19952;-67
2023/03/26 12:46:53;;;;;;;;;;;;;;;;;;5053816;28;19994;-66
2023/03/26 12:49:19;;;;;;;;;;;;;;;;;;5053767;28;20416;-66
2023/03/26 12:51:45;;;;;;;;;;;;;;;;;;5053741;28;19952;-68
2023/03/26 12:54:14;;;;;;;;;;;;;;;;;;5054274;28;19982;-66
2023/03/26 12:56:40;;;;;;;;;;;;;;;;;;5053671;28;20035;-66
2023/03/26 12:59:06;;;;;;;;;;;;;;;;;;5053939;28;20310;-66
2023/03/26 13:01:33;;;;;;;;;;;;;;;;;;5054486;28;19952;-68
2023/03/26 13:03:59;;;;;;;;;;;;;;;;;;5053551;28;19973;-66
2023/03/26 13:06:26;;;;;;;;;;;;;;;;;;5053551;28;19951;-67
2023/03/26 13:08:52;;;;;;;;;;;;;;;;;;5053728;28;20372;-65
2023/03/26 13:11:18;;;;;;;;;;;;;;;;;;5054633;28;20001;-65
2023/03/26 13:13:44;;;;;;;;;;;;;;;;;;5053715;28;19995;-68
2023/03/26 13:16:10;;;;;;;;;;;;;;;;;;5053750;28;19955;-65
2023/03/26 13:18:36;;;;;;;;;;;;;;;;;;5053744;28;19984;-64
2023/03/26 13:21:02;;;;;;;;;;;;;;;;;;5052098;28;19967;-65
2023/03/26 13:23:28;;;;;;;;;;;;;;;;;;5053904;28;19978;-66
2023/03/26 13:25:54;;;;;;;;;;;;;;;;;;5053406;28;19950;-64
2023/03/26 13:28:20;;;;;;;;;;;;;;;;;;5053918;28;19952;-65
2023/03/26 13:30:46;;;;;;;;;;;;;;;;;;5053226;28;20482;-66
2023/03/26 13:33:11;;;;;;;;;;;;;;;;;;5053327;28;19952;-68
2023/03/26 13:35:37;;;;;;;;;;;;;;;;;;5053517;28;19958;-66
2023/03/26 13:38:03;;;;;;;;;;;;;;;;;;5053164;28;20316;-67
2023/03/26 13:40:29;;;;;;;;;;;;;;;;;;5053100;28;19988;-65
2023/03/26 13:42:55;;;;;;;;;;;;;;;;;;5053511;28;19966;-65
2023/03/26 13:45:21;;;;;;;;;;;;;;;;;;5053538;28;20347;-68
2023/03/26 13:47:47;;;;;;;;;;;;;;;;;;5053127;28;20400;-69
2023/03/26 13:50:13;;;;;;;;;;;;;;;;;;5053736;28;20313;-67
2023/03/26 13:52:39;;;;;;;;;;;;;;;;;;5055676;28;20043;-68
2023/03/26 13:55:04;;;;;;;;;;;;;;;;;;5056972;28;19950;-65
2023/03/26 13:57:30;;;;;;;;;;;;;;;;;;5056970;28;20003;-66
2023/03/26 13:59:56;;;;;;;;;;;;;;;;;;5056910;28;19945;-65
2023/03/26 14:02:22;;;;;;;;;;;;;;;;;;5057088;28;19972;-66
2023/03/26 14:04:48;;;;;;;;;;;;;;;;;;5056839;28;20327;-65
2023/03/26 14:07:14;;;;;;;;;;;;;;;;;;5057054;28;20427;-66
2023/03/26 14:09:40;;;;;;;;;;;;;;;;;;5056726;28;19953;-65
2023/03/26 14:12:06;;;;;;;;;;;;;;;;;;5057342;28;20002;-68
2023/03/26 14:14:32;;;;;;;;;;;;;;;;;;5056819;28;19953;-65
2023/03/26 14:16:58;;;;;;;;;;;;;;;;;;5056578;28;20362;-65
2023/03/26 14:19:24;;;;;;;;;;;;;;;;;;5056742;28;19957;-66
2023/03/26 14:21:50;;;;;;;;;;;;;;;;;;5056530;28;20057;-67
2023/03/26 14:24:16;;;;;;;;;;;;;;;;;;5057177;28;20069;-68
2023/03/26 14:26:42;;;;;;;;;;;;;;;;;;5056374;28;20026;-68
2023/03/26 14:29:08;;;;;;;;;;;;;;;;;;5056586;28;19999;-67
2023/03/26 14:31:34;;;;;;;;;;;;;;;;;;5056302;28;19949;-67
2023/03/26 14:34:01;;;;;;;;;;;;;;;;;;5056263;28;19952;-68
2023/03/26 14:36:27;;;;;;;;;;;;;;;;;;5056468;28;20030;-67
2023/03/26 14:38:52;;;;;;;;;;;;;;;;;;5056081;28;19951;-65
2023/03/26 14:41:18;;;;;;;;;;;;;;;;;;5056417;28;20090;-68
2023/03/26 14:43:44;;;;;;;;;;;;;;;;;;5056008;28;19967;-69
2023/03/26 14:46:10;;;;;;;;;;;;;;;;;;5056053;28;19961;-68
2023/03/26 14:48:36;;;;;;;;;;;;;;;;;;5055888;28;19952;-65
2023/03/26 14:51:02;;;;;;;;;;;;;;;;;;5056442;28;20414;-65
2023/03/26 14:53:28;;;;;;;;;;;;;;;;;;5055864;28;20326;-69
2023/03/26 14:55:55;;;;;;;;;;;;;;;;;;5055867;28;19952;-67
2023/03/26 14:58:21;;;;;;;;;;;;;;;;;;5055280;28;19961;-65
2023/03/26 15:00:47;;;;;;;;;;;;;;;;;;5056375;28;20020;-67
2023/03/26 15:03:13;;;;;;;;;;;;;;;;;;5054951;28;20014;-67
2023/03/26 15:05:39;;;;;;;;;;;;;;;;;;5055913;28;19951;-68
2023/03/26 15:08:05;;;;;;;;;;;;;;;;;;5055320;28;19992;-66
2023/03/26 15:10:31;;;;;;;;;;;;;;;;;;5055554;28;20021;-65
2023/03/26 15:12:56;;;;;;;;;;;;;;;;;;5055448;28;20014;-68
2023/03/26 15:15:23;;;;;;;;;;;;;;;;;;5055356;28;20434;-64
2023/03/26 15:17:49;;;;;;;;;;;;;;;;;;5055556;28;20408;-69
2023/03/26 15:20:15;;;;;;;;;;;;;;;;;;5055468;28;19954;-65
2023/03/26 15:22:41;;;;;;;;;;;;;;;;;;5055075;28;20505;-66
2023/03/26 15:25:07;;;;;;;;;;;;;;;;;;5055189;28;19947;-68
2023/03/26 15:27:33;;;;;;;;;;;;;;;;;;5055267;28;20041;-66
2023/03/26 15:29:59;;;;;;;;;;;;;;;;;;5055235;28;19972;-65
2023/03/26 15:32:28;;;;;;;;;;;;;;;;;;5055552;28;19951;-66
2023/03/26 15:34:55;;;;;;;;;;;;;;;;;;5056047;28;19962;-67
2023/03/26 15:37:21;;;;;;;;;;;;;;;;;;5055063;28;19967;-66
2023/03/26 15:39:53;;;;;;;;;;;;;;;;;;5054785;28;20051;-68
2023/03/26 15:42:19;;;;;;;;;;;;;;;;;;5054867;28;20309;-66
2023/03/26 15:44:45;;;;;;;;;;;;;;;;;;5055471;28;19958;-68
2023/03/26 15:47:11;;;;;;;;;;;;;;;;;;5055192;28;20431;-68
2023/03/26 15:49:38;;;;;;;;;;;;;;;;;;5054852;28;19954;-66
2023/03/26 15:52:05;;;;;;;;;;;;;;;;;;5055089;28;20001;-67
2023/03/26 15:54:31;;;;;;;;;;;;;;;;;;5054967;28;19993;-65
2023/03/26 15:56:57;;;;;;;;;;;;;;;;;;5054689;28;20500;-69
2023/03/26 15:59:23;;;;;;;;;;;;;;;;;;5054923;28;20040;-67
2023/03/26 16:01:48;;;;;;;;;;;;;;;;;;5055147;28;19954;-67
2023/03/26 16:04:14;;;;;;;;;;;;;;;;;;5054456;28;19972;-66
2023/03/26 16:06:45;;;;;;;;;;;;;;;;;;5054424;28;19953;-69
2023/03/26 16:09:11;;;;;;;;;;;;;;;;;;5054430;28;20423;-66
2023/03/26 16:11:37;;;;;;;;;;;;;;;;;;5054428;28;19980;-68
2023/03/26 16:14:03;;;;;;;;;;;;;;;;;;5054634;28;20349;-69
2023/03/26 16:16:29;;;;;;;;;;;;;;;;;;5054291;28;19952;-66
2023/03/26 16:18:55;;;;;;;;;;;;;;;;;;5054238;28;19957;-64
2023/03/26 16:21:21;;;;;;;;;;;;;;;;;;5054545;28;19992;-65
2023/03/26 16:23:47;;;;;;;;;;;;;;;;;;5054075;28;20024;-68
2023/03/26 16:26:13;;;;;;;;;;;;;;;;;;5054448;28;20336;-68
2023/03/26 16:28:40;;;;;;;;;;;;;;;;;;5054254;28;19968;-66
2023/03/26 16:31:06;;;;;;;;;;;;;;;;;;5054798;28;20048;-67
2023/03/26 16:33:33;;;;;;;;;;;;;;;;;;5054298;28;19980;-66
2023/03/26 16:36:00;;;;;;;;;;;;;;;;;;5054217;28;20020;-68
2023/03/26 16:38:26;;;;;;;;;;;;;;;;;;5054187;28;20001;-67